• Join FlightAware (Why Join?)
  • Login
  • US Flag 
Gobble Gobble! 
03:41AM EST


 

Airport Tracker/Info


-or-


 

Live Flight TrackerFlight Track Log ✈ UAL4295 ✈ 04-Nov-2013 ✈ KCMH - KIAH

Flight Track Log - Related Links

Times and Time Zones

All times are in EST time to prevent confusion due to time zone crossing. See the UAL4295 flight status page for this flight to view local times or setup timezone preferences in your user account.

Time Position Orientation Groundspeed Altitude Reporting Facility
EST Latitude Longitude Course Direction KTS MPH feet Rate Location/Type
05:09PM 40.0003 -82.8503 87° East 156 180 2,100  Level Indianapolis Center
05:10PM 40.0078 -82.7825 82° East 222 255 3,700 1,620 Climbing Indianapolis Center
05:10PM 40.0081 -82.7797 83° East 220 253 3,800 1,560 Climbing Indianapolis Center
05:11PM 40.0778 -82.8011 347° North 230 265 5,600 1,740 Climbing Indianapolis Center
05:12PM 39.7466 -83.2695 270° West  Level Estimated
05:12PM 40.1011 -82.8831 290° West 260 299 7,400  Level Indianapolis Center
05:13PM 39.6838 -83.3634 270° West  Level Estimated
05:13PM 40.1111 -82.9731 278° West 254 292 9,500  Level Indianapolis Center
05:14PM 40.1211 -83.0661 278° West 260 299 10,800 960 Climbing Indianapolis Center
05:15PM 40.1208 -83.1742 270° West 301 346 11,500 780 Climbing Indianapolis Center
05:16PM 40.0739 -83.2708 238° Southwest 318 366 12,500 1,260 Climbing Indianapolis Center
05:17PM 40.0200 -83.3911 240° Southwest 323 372 14,200 1,500 Climbing Indianapolis Center
05:18PM 39.9753 -83.4900 239° Southwest 322 371 15,600 1,320 Climbing Indianapolis Center
05:19PM 39.9325 -83.5872 240° Southwest 317 365 17,000 960 Climbing Indianapolis Center
05:20PM 39.8892 -83.6836 240° Southwest 315 362 17,700 900 Climbing Indianapolis Center
05:21PM 39.8347 -83.8014 239° Southwest 320 368 18,900 1,020 Climbing Indianapolis Center
05:22PM 39.7883 -83.9058 240° Southwest 332 382 19,900 900 Climbing Indianapolis Center
05:23PM 39.7397 -84.0114 239° Southwest 340 391 20,800 900 Climbing Indianapolis Center
05:24PM 39.6906 -84.1206 240° Southwest 349 402 21,800 960 Climbing Indianapolis Center
05:25PM 39.6414 -84.2283 239° Southwest 348 400 22,800 960 Climbing Indianapolis Center
05:26PM 39.5917 -84.3367 239° Southwest 350 403 23,800 960 Climbing Indianapolis Center
05:27PM 39.5322 -84.4650 239° Southwest 348 400 24,900 1,140 Climbing Indianapolis Center
05:28PM 39.4847 -84.5694 240° Southwest 340 391 26,200 1,200 Climbing Indianapolis Center
05:29PM 39.4378 -84.6681 238° Southwest 326 375 27,400 1,020 Climbing Indianapolis Center
05:30PM 39.3933 -84.7644 239° Southwest 315 362 28,400 780 Climbing Indianapolis Center
05:31PM 39.3492 -84.8597 239° Southwest 311 358 29,000 600 Climbing Indianapolis Center
05:32PM 39.2992 -84.9681 239° Southwest 322 371 29,700 720 Climbing Indianapolis Center
05:33PM 39.2519 -85.0661 238° Southwest 322 371 30,600 600 Climbing Indianapolis Center
05:34PM 39.2047 -85.1644 238° Southwest 323 372 31,000 300 Climbing Indianapolis Center
05:36PM 39.1567 -85.2700 240° Southwest 340 391 31,300 780 Climbing Indianapolis Center
05:38PM 39.0469 -85.4983 238° Southwest 337 388 33,500 1,140 Climbing Indianapolis Center
05:39PM 39.0011 -85.5942 238° Southwest 318 366 35,000 1,140 Climbing Indianapolis Center
05:40PM 38.9586 -85.6842 239° Southwest 299 344 35,900 480 Climbing Indianapolis Center
05:41PM 38.9147 -85.7736 238° Southwest 297 342 36,000  Climbing Indianapolis Center
05:42PM 38.8689 -85.8692 238° Southwest 310 357 36,000  Level Indianapolis Center
05:43PM 38.8214 -85.9692 239° Southwest 325 374 36,000  Level Indianapolis Center
05:44PM 38.7614 -86.0928 238° Southwest 337 388 36,000  Level Indianapolis Center
05:45PM 38.7097 -86.1994 238° Southwest 347 399 36,000  Level Indianapolis Center
05:46PM 38.6581 -86.3044 238° Southwest 347 399 36,000  Level Indianapolis Center
05:47PM 38.6069 -86.4078 238° Southwest 343 395 36,000  Level Indianapolis Center
05:48PM 38.5558 -86.5103 237° Southwest 341 392 36,000  Level Indianapolis Center
05:49PM 38.5053 -86.6136 238° Southwest 341 392 36,000  Level Indianapolis Center
05:50PM 38.4544 -86.7156 238° Southwest 339 390 36,000  Level Indianapolis Center
05:51PM 38.3931 -86.8400 238° Southwest 342 394 36,000  Level Indianapolis Center
05:52PM 38.3433 -86.9375 237° Southwest 344 396 36,000  Level Indianapolis Center
05:53PM 38.2917 -87.0400 237° Southwest 345 397 36,000  Level Indianapolis Center
05:54PM 38.2403 -87.1444 238° Southwest 347 399 36,000  Level Indianapolis Center
05:55PM 38.1806 -87.2647 238° Southwest 347 399 36,000  Level Indianapolis Center
05:56PM 38.1289 -87.3678 238° Southwest 344 396 36,000  Level Indianapolis Center
05:57PM 38.0775 -87.4683 237° Southwest 341 392 36,000  Level Indianapolis Center
05:58PM 38.0267 -87.5694 237° Southwest 339 390 36,000  Level Indianapolis Center
05:59PM 37.9750 -87.6697 237° Southwest 340 391 36,000  Level Indianapolis Center
06:00PM 37.9239 -87.7694 237° Southwest 337 388 36,000  Level Indianapolis Center
06:01PM 37.8589 -87.8617 228° Southwest 346 398 36,000  Level Indianapolis Center
06:02PM 37.7839 -87.9703 229° Southwest 342 394 36,000  Level Indianapolis Center
06:03PM 37.7217 -88.0611 229° Southwest 345 397 36,000  Level Indianapolis Center
06:04PM 37.6578 -88.1517 228° Southwest 344 396 36,000  Level Indianapolis Center
06:05PM 37.5939 -88.2442 229° Southwest 345 397 36,000  Level Indianapolis Center
06:07PM 37.5303 -88.3358 229° Southwest 345 397 36,000  Level Indianapolis Center
06:07PM 37.4750 -88.4206 231° Southwest 348 400 36,000  Level Memphis Center
06:08PM 37.4097 -88.5083 227° Southwest 348 400 36,000  Level Memphis Center
06:09PM 37.3444 -88.6036 229° Southwest 348 400 36,000  Level Memphis Center
06:10PM 37.2811 -88.6939 229° Southwest 348 400 36,000  Level Memphis Center
06:11PM 37.2136 -88.7864 228° Southwest 348 400 36,000  Level Memphis Center
06:12PM 37.1481 -88.8814 229° Southwest 353 406 36,000  Level Memphis Center
06:13PM 37.0825 -88.9736 228° Southwest 353 406 36,000  Level Memphis Center
06:14PM 37.0169 -89.0656 228° Southwest 358 412 36,000  Level Memphis Center
06:15PM 36.9531 -89.1575 229° Southwest 358 412 36,000  Level Memphis Center
06:16PM 36.8872 -89.2494 228° Southwest 358 412 36,000  Level Memphis Center
06:17PM 36.8194 -89.3436 228° Southwest 358 412 36,000  Level Memphis Center
06:18PM 36.7556 -89.4350 229° Southwest 358 412 36,000  Level Memphis Center
06:19PM 36.6936 -89.5211 228° Southwest 363 418 36,000  Level Memphis Center
06:20PM 36.6253 -89.6097 226° Southwest 363 418 36,000  Level Memphis Center
06:21PM 36.5592 -89.7033 229° Southwest 363 418 36,000  Level Memphis Center
06:22PM 36.4908 -89.7969 228° Southwest 363 418 36,000  Level Memphis Center
06:23PM 36.4244 -89.8850 227° Southwest 363 418 36,000  Level Memphis Center
06:24PM 36.3581 -89.9731 227° Southwest 363 418 36,000  Level Memphis Center
06:25PM 36.2917 -90.0633 228° Southwest 363 418 36,000  Level Memphis Center
06:26PM 36.2253 -90.1564 229° Southwest 363 418 36,000  Level Memphis Center
06:27PM 36.1564 -90.2439 226° Southwest 363 418 36,000  Level Memphis Center
06:28PM 36.0897 -90.3314 227° Southwest 358 412 36,000  Level Memphis Center
06:29PM 36.0211 -90.4236 227° Southwest 358 412 36,000  Level Memphis Center
06:30PM 35.9564 -90.5158 229° Southwest 363 418 36,000  Level Memphis Center
06:31PM 35.8789 -90.5978 221° Southwest 363 418 36,000  Level Memphis Center
06:32PM 35.7914 -90.6642 212° Southwest 370 426 36,000  Level Memphis Center
06:33PM 35.7056 -90.7328 213° Southwest 375 432 36,000  Level Memphis Center
06:34PM 35.6242 -90.7964 212° Southwest 365 420 36,000  Level Memphis Center
06:35PM 35.5361 -90.8622 211° Southwest 370 426 36,000  Level Memphis Center
06:36PM 35.4461 -90.9278 211° Southwest 370 426 36,000  Level Memphis Center
06:37PM 35.3603 -90.9961 213° Southwest 375 432 36,000  Level Memphis Center
06:38PM 35.2642 -91.0489 204° Southwest 375 432 36,000  Level Memphis Center
06:39PM 35.1636 -91.0961 201° Southwest 380 437 36,000  Level Memphis Center
06:40PM 35.0653 -91.1511 205° Southwest 385 443 36,000  Level Memphis Center
06:41PM 34.9503 -91.1906 196° South 390 449 36,000  Level Memphis Center
06:42PM 34.8375 -91.2022 185° South 403 464 36,000  Level Memphis Center
06:43PM 34.7250 -91.2164 186° South 409 471 36,000  Level Memphis Center
06:44PM 34.6225 -91.2253 184° South 409 471 36,000  Level Memphis Center
06:45PM 34.5094 -91.2847 203° Southwest 398 458 36,000  Level Memphis Center
06:46PM 34.4108 -91.3439 206° Southwest 393 452 36,000  Level Memphis Center
06:47PM 34.3144 -91.3983 205° Southwest 393 452 36,000  Level Memphis Center
06:48PM 34.2139 -91.4547 205° Southwest 393 452 36,000  Level Memphis Center
06:49PM 34.1131 -91.5086 204° Southwest 399 459 36,000  Level Memphis Center
06:50PM 34.0144 -91.5650 205° Southwest 400 460 36,000  Level Memphis Center
06:51PM 33.9139 -91.6211 205° Southwest 400 460 36,000  Level Memphis Center
06:53PM 33.7192 -91.7303 205° Southwest 395 455 36,000  Level Fort Worth Center
06:54PM 33.6172 -91.7842 204° Southwest 400 460 36,000  Level Fort Worth Center
06:55PM 33.5175 -91.8403 205° Southwest 400 460 36,000  Level Fort Worth Center
06:56PM 33.4075 -91.9019 205° Southwest 400 460 36,000  Level Fort Worth Center
06:57PM 33.3075 -91.9556 204° Southwest 400 460 36,000  Level Fort Worth Center
06:58PM 33.2100 -92.0136 206° Southwest 400 460 36,000  Level Fort Worth Center
06:59PM 33.1081 -92.0669 204° Southwest 394 453 36,000  Level Fort Worth Center
07:00PM 33.0100 -92.1222 205° Southwest 394 453 36,000  Level Fort Worth Center
07:01PM 32.9100 -92.1753 204° Southwest 394 453 36,000  Level Fort Worth Center
07:02PM 32.8081 -92.2331 205° Southwest 394 453 36,000  Level Fort Worth Center
07:03PM 32.7081 -92.2858 204° Southwest 394 453 36,000  Level Fort Worth Center
07:06PM 32.4958 -92.3958 204° Southwest 404 465 36,000  Level Houston Center
07:07PM 32.3931 -92.4508 204° Southwest 406 467 36,000  Level Houston Center
07:08PM 32.2897 -92.5069 205° Southwest 407 468 36,000  Level Houston Center
07:09PM 32.1861 -92.5647 205° Southwest 410 472 36,000  Level Houston Center
07:10PM 32.0631 -92.6292 204° Southwest 404 465 36,000  Level Houston Center
07:11PM 31.9617 -92.6856 205° Southwest 402 463 36,000  Level Houston Center
07:12PM 31.8769 -92.7706 220° Southwest 400 460 36,000  Level Houston Center
07:13PM 31.7903 -92.8558 220° Southwest 403 464 36,000  Level Houston Center
07:14PM 31.7033 -92.9389 219° Southwest 404 465 36,000  Level Houston Center
07:15PM 31.6169 -93.0214 219° Southwest 401 461 36,000  Level Houston Center
07:16PM 31.5333 -93.1033 220° Southwest 395 455 36,000  Level Houston Center
07:17PM 31.4306 -93.2011 219° Southwest 395 455 36,000  Level Houston Center
07:18PM 31.3458 -93.2819 219° Southwest 394 453 36,000  Level Houston Center
07:19PM 31.2600 -93.3636 219° Southwest 397 457 36,000 -60 Level Houston Center
07:20PM 31.1753 -93.4458 220° Southwest 397 457 35,900 -1,020 Descending Houston Center
07:21PM 31.0906 -93.5267 219° Southwest 395 455 34,000 -2,160 Descending Houston Center
07:22PM 31.0031 -93.6094 219° Southwest 404 465 31,500 -2,460 Descending Houston Center
07:23PM 30.9014 -93.7056 219° Southwest 396 456 29,000 -2,160 Descending Houston Center
07:24PM 30.8156 -93.7858 219° Southwest 397 457 27,100 -2,220 Descending Houston Center
07:25PM 30.7225 -93.8742 219° Southwest 427 491 24,500 -2,520 Descending Houston Center
07:26PM 30.6314 -93.9600 219° Southwest 424 488 22,000 -2,340 Descending Houston Center
07:27PM 30.5475 -94.0383 219° Southwest 394 453 19,700 -2,580 Descending Houston Center
07:27PM 30.5156 -94.0678 218° Southwest 376 433 18,900 -2,880 Descending Houston Center
07:28PM 30.5019 -94.0794 216° Southwest 375 432 18,600 -1,440 Descending Houston Center
07:28PM 30.4664 -94.1131 219° Southwest 378 435 17,700 -2,220 Descending Houston Center
07:29PM 30.4175 -94.1586 219° Southwest 373 429 16,400 -2,460 Descending Houston Center
07:29PM 30.3692 -94.2050 220° Southwest 378 435 15,200 -1,920 Descending Houston Center
07:30PM 30.3433 -94.2364 226° Southwest 372 428 14,500 -1,860 Descending Houston Center
07:30PM 30.3172 -94.3050 246° West 380 437 13,300 -1,800 Descending Houston Center
07:31PM 30.2975 -94.3467 241° Southwest 364 419 12,700 -1,200 Descending Houston Center
07:31PM 30.2733 -94.4097 246° West 368 423 12,100 -900 Descending Houston Center
07:32PM 30.2597 -94.4533 250° West 359 413 11,800 -900 Descending Houston Center
07:32PM 30.2394 -94.5172 250° West 362 417 11,200 -1,020 Descending Houston Center
07:33PM 30.2200 -94.5650 245° Southwest 358 412 10,800 -1,020 Descending Houston Center
07:33PM 30.2025 -94.6236 251° West 361 415 10,200 -720 Descending Houston Center
07:34PM 30.1792 -94.6839 246° West 355 409 10,000 -240 Descending Houston Center
07:34PM 30.1661 -94.7278 251° West 355 409 10,000  Level Houston Center
07:35PM 30.1450 -94.7872 248° West 342 394 10,000  Level Houston Center
07:35PM 30.1239 -94.8486 248° West 343 395 10,000  Level Houston Center
07:36PM 30.1086 -94.8911 247° West 341 392 10,000  Level Houston Center
07:36PM 30.1058 -94.9567 267° West 356 410 10,000  Level Houston Center
07:37PM 30.1061 -94.9975 270° West 318 366 10,000 -420 Level Houston Center
07:37PM 30.1072 -95.0508 271° West 303 349 9,600 -840 Descending Houston Center
07:38PM 30.1058 -95.0847 267° West 260 299 9,200 -1,020 Descending Houston Center
07:38PM 30.1069 -95.1331 272° West 266 306 8,600 -1,140 Descending Houston Center
07:39PM 30.1058 -95.1764 268° West 273 314 8,100 -1,020 Descending Houston Center
07:40PM 30.1072 -95.2206 272° West 272 313 7,600 -840 Descending Houston Center
07:40PM 30.1072 -95.2583 270° West 241 277 7,300 -1,020 Descending Houston Center
07:41PM 30.1078 -95.3139 271° West 246 283 6,600 -1,020 Descending Houston Center
07:41PM 30.1058 -95.3358 264° West 244 281 6,300 -600 Descending Houston Center
07:42PM 30.1072 -95.3903 272° West 242 278 6,000 -600 Descending Houston Center
07:42PM 30.1061 -95.4081 266° West 246 283 5,800 -900 Descending Houston Center
07:43PM 30.1078 -95.4692 272° West 246 283 5,100 -1,020 Descending Houston Center
07:43PM 30.1072 -95.4878 268° West 247 284 4,800 -1,020 Descending Houston Center
07:44PM 30.1078 -95.5483 271° West 247 284 4,100 -720 Descending Houston Center
07:44PM 30.1025 -95.5753 257° West 243 280 4,000 -120 Descending Houston Center
07:45PM 30.0703 -95.5842 193° South 207 238 4,000  Level Houston Center
07:45PM 30.0508 -95.5861 185° South 161 185 4,000 -540 Level Houston Center
07:46PM 30.0256 -95.5858 179° South 165 190 3,500 -900 Descending Houston Center
07:46PM 30.0106 -95.5814 166° South 149 171 3,100 -420 Descending Houston Center
07:47PM 29.9922 -95.5400 117° Southeast 148 170 3,000 -360 Descending Houston Center
07:48PM 29.9919 -95.4919 90° East 152 175 2,400 -660 Descending Houston Center
07:49PM 29.9933 -95.4558 87° East 147 169 1,800 -720 Descending Houston Center
07:49PM 29.9925 -95.4508 101° East 112 129 1,700 -600 Descending Houston Center
07:50PM 29.9936 -95.4197 88° East 130 150 1,200 -600 Descending Houston Center
07:50PM 29.9931 -95.4097 94° East 118 136 1,100 -600 Descending Houston Center
07:51PM 29.9939 -95.3828 88° East 121 139 600 -720 Descending Houston Center
07:51PM 29.9917 -95.3714 103° East 121 139 400 -240 Descending Houston Center
07:52PM 29.9933 -95.3444 86° East 120 138 400  Level Houston Center